Time;durP1;ratioP1;P1;durP2;ratioP2;P2;SDS_P1;SDS_P2;PMS_P1;PMS_P2;Temp;Humidity;BMP_temperature;BMP_pressure;BME280_temperature;BME280_humidity;BME280_pressure;Samples;Min_cycle;Max_cycle;Signal;HPM_P1;HPM_P2
2023/05/23 00:04:57;;;;;;;40.50;21.38;;;;;;;13.23;100.00;101706.25;4899273;29;20069;-86
2023/05/23 00:07:22;;;;;;;32.80;20.67;;;;;;;13.33;100.00;101722.16;4882774;29;20108;-86
2023/05/23 00:09:50;;;;;;;38.92;21.60;;;;;;;13.38;100.00;101722.41;4866914;29;20485;-86
2023/05/23 00:12:15;;;;;;;33.43;20.03;;;;;;;13.32;100.00;101704.97;4867239;29;20037;-86
2023/05/23 00:14:41;;;;;;;34.92;20.30;;;;;;;13.47;100.00;101729.28;4882783;29;20446;-87
2023/05/23 00:17:09;;;;;;;41.53;19.27;;;;;;;13.51;100.00;101727.00;4882329;29;20427;-86
2023/05/23 00:19:35;;;;;;;31.23;18.25;;;;;;;13.51;100.00;101716.09;4883129;29;20128;-86
2023/05/23 00:22:02;;;;;;;31.40;18.63;;;;;;;13.53;100.00;101716.69;4866953;29;20127;-86
2023/05/23 00:24:27;;;;;;;29.50;17.35;;;;;;;13.55;100.00;101716.47;4882050;29;20405;-86
2023/05/23 00:26:53;;;;;;;26.17;17.37;;;;;;;13.58;100.00;101719.63;4898554;29;20124;-86
2023/05/23 00:29:18;;;;;;;28.25;16.27;;;;;;;13.60;100.00;101719.44;4883037;29;20051;-86
2023/05/23 00:31:47;;;;;;;25.60;14.33;;;;;;;13.63;100.00;101724.44;4882118;29;20028;-86
2023/05/23 00:34:14;;;;;;;23.63;14.02;;;;;;;13.64;100.00;101717.91;4898735;29;20041;-86
2023/05/23 00:36:40;;;;;;;23.33;14.65;;;;;;;13.65;100.00;101717.69;4898802;29;20032;-87
2023/05/23 00:39:07;;;;;;;21.73;14.13;;;;;;;13.68;100.00;101727.34;4882648;29;20040;-86
2023/05/23 00:41:33;;;;;;;23.30;14.27;;;;;;;13.68;100.00;101728.22;4882755;29;20099;-86
2023/05/23 00:43:58;;;;;;;24.25;14.18;;;;;;;13.69;100.00;101726.31;4882471;29;20040;-86
2023/05/23 00:46:25;;;;;;;23.20;13.33;;;;;;;13.74;100.00;101729.22;4898561;29;20099;-86
2023/05/23 00:48:52;;;;;;;19.88;13.32;;;;;;;13.76;100.00;101734.44;4881971;29;20043;-86
2023/05/23 00:51:18;;;;;;;22.92;13.25;;;;;;;13.77;100.00;101728.78;4881701;29;20037;-86
2023/05/23 00:53:44;;;;;;;22.77;13.25;;;;;;;13.79;100.00;101740.34;4882586;29;20035;-86
2023/05/23 00:56:11;;;;;;;22.70;14.10;;;;;;;13.79;100.00;101734.88;4881794;29;20505;-86
2023/05/23 00:58:36;;;;;;;23.08;14.07;;;;;;;13.76;100.00;101724.41;4881871;29;20181;-86
2023/05/23 01:01:02;;;;;;;23.20;14.60;;;;;;;13.77;100.00;101734.25;4882131;29;20446;-86
2023/05/23 01:03:28;;;;;;;25.33;14.13;;;;;;;13.74;100.00;101742.03;4866499;29;20037;-86
2023/05/23 01:05:55;;;;;;;20.42;14.75;;;;;;;13.82;100.00;101756.25;4898485;29;20363;-86
2023/05/23 01:08:21;;;;;;;24.73;14.40;;;;;;;13.78;100.00;101746.84;4898605;29;20119;-86
2023/05/23 01:10:47;;;;;;;26.83;15.27;;;;;;;13.71;100.00;101739.72;4866206;29;20127;-86
2023/05/23 01:13:19;;;;;;;25.77;15.13;;;;;;;13.76;100.00;101748.94;4881682;29;20048;-86
2023/05/23 01:15:50;;;;;;;22.75;14.73;;;;;;;13.70;100.00;101744.34;4881975;29;20454;-86
2023/05/23 01:18:23;;;;;;;23.40;14.55;;;;;;;13.65;100.00;101747.69;4882073;29;20036;-86
2023/05/23 01:21:01;;;;;;;22.42;13.20;;;;;;;13.64;100.00;101751.50;4881933;29;20033;-86
2023/05/23 01:23:58;;;;;;;23.07;13.33;;;;;;;13.66;100.00;101760.28;4898839;29;20079;-86
2023/05/23 01:26:40;;;;;;;20.35;12.48;;;;;;;13.61;100.00;101756.53;4882416;29;20122;-87
2023/05/23 01:29:23;;;;;;;20.73;11.93;;;;;;;13.63;100.00;101757.16;4879826;29;20119;-86
2023/05/23 01:31:52;;;;;;;22.13;12.32;;;;;;;13.60;100.00;101760.31;4883312;29;20108;-86
2023/05/23 01:34:18;;;;;;;19.98;11.07;;;;;;;13.58;100.00;101762.41;4866691;29;20470;-86
2023/05/23 01:36:44;;;;;;;23.00;11.80;;;;;;;13.58;100.00;101774.16;4851319;29;20040;-87
2023/05/23 01:39:10;;;;;;;22.13;12.27;;;;;;;13.59;100.00;101769.53;4866329;29;20037;-86
2023/05/23 01:41:35;;;;;;;21.67;12.38;;;;;;;13.57;100.00;101774.34;4883068;29;20041;-86
2023/05/23 01:44:02;;;;;;;21.37;13.43;;;;;;;13.53;100.00;101770.41;4883925;29;20090;-86
2023/05/23 01:46:30;;;;;;;25.77;14.75;;;;;;;13.52;100.00;101777.72;4866704;29;20037;-86
2023/05/23 01:48:56;;;;;;;23.27;13.80;;;;;;;13.46;100.00;101771.25;4866477;29;20033;-86
2023/05/23 01:51:22;;;;;;;27.37;14.40;;;;;;;13.54;100.00;101774.78;4882871;29;20174;-86
2023/05/23 01:53:49;;;;;;;27.38;15.27;;;;;;;13.48;100.00;101771.88;4835790;29;20119;-86
2023/05/23 01:56:15;;;;;;;26.85;14.18;;;;;;;13.51;100.00;101773.34;4866338;29;20037;-86
2023/05/23 01:58:41;;;;;;;31.83;15.50;;;;;;;13.49;100.00;101781.72;4850697;29;20478;-82
2023/05/23 02:01:08;;;;;;;32.07;15.10;;;;;;;13.48;100.00;101777.31;4866413;29;20037;-82
2023/05/23 02:03:34;;;;;;;30.63;15.50;;;;;;;13.48;100.00;101779.22;4850930;29;20048;-82
2023/05/23 02:06:00;;;;;;;28.48;14.95;;;;;;;13.50;100.00;101782.56;4882555;29;20033;-82
2023/05/23 02:08:28;;;;;;;26.37;14.23;;;;;;;13.53;100.00;101782.13;4866118;29;20040;-82
2023/05/23 02:10:53;;;;;;;28.80;16.33;;;;;;;13.53;100.00;101789.50;4865841;29;20069;-82
2023/05/23 02:13:19;;;;;;;27.57;14.87;;;;;;;13.54;100.00;101785.69;4865934;29;20032;-82
2023/05/23 02:15:44;;;;;;;33.60;15.57;;;;;;;13.48;100.00;101792.84;4851107;29;20033;-82
2023/05/23 02:18:09;;;;;;;29.63;15.63;;;;;;;13.46;100.00;101797.66;4866168;29;20474;-82
2023/05/23 02:20:35;;;;;;;27.40;15.20;;;;;;;13.45;100.00;101795.97;4851079;29;20168;-82
2023/05/23 02:23:00;;;;;;;31.90;15.93;;;;;;;13.43;100.00;101796.19;4850284;29;20029;-82
2023/05/23 02:25:26;;;;;;;24.73;14.50;;;;;;;13.43;100.00;101796.19;4866128;29;20057;-82
2023/05/23 02:27:51;;;;;;;28.97;14.93;;;;;;;13.44;100.00;101799.78;4880936;29;20533;-82
2023/05/23 02:30:16;;;;;;;33.83;14.02;;;;;;;13.44;100.00;101810.69;4898930;29;20055;-82
2023/05/23 02:32:42;;;;;;;26.10;13.63;;;;;;;13.41;100.00;101808.38;4898700;29;20033;-82
2023/05/23 02:35:07;;;;;;;28.93;14.43;;;;;;;13.41;100.00;101811.94;4899340;29;20040;-82
2023/05/23 02:37:33;;;;;;;27.00;13.37;;;;;;;13.42;100.00;101801.84;4898551;29;20033;-82
2023/05/23 02:39:58;;;;;;;32.42;14.15;;;;;;;13.42;100.00;101802.72;4898812;29;20043;-81
2023/05/23 02:42:24;;;;;;;29.17;13.00;;;;;;;13.40;100.00;101802.06;4883128;29;20145;-81
2023/05/23 02:44:49;;;;;;;27.23;13.37;;;;;;;13.41;100.00;101801.03;4899244;29;20033;-81
2023/05/23 02:47:14;;;;;;;25.20;12.83;;;;;;;13.42;100.00;101807.31;4899726;29;20033;-82
2023/05/23 02:49:40;;;;;;;26.33;11.40;;;;;;;13.41;100.00;101800.19;4898877;29;20028;-82
2023/05/23 02:52:05;;;;;;;19.50;10.77;;;;;;;13.38;100.00;101808.81;4898404;29;20053;-81
2023/05/23 02:54:31;;;;;;;25.43;11.10;;;;;;;13.41;100.00;101805.66;4898471;29;20032;-81
2023/05/23 02:56:57;;;;;;;19.90;10.23;;;;;;;13.41;100.00;101813.81;4883447;29;20028;-82
2023/05/23 02:59:22;;;;;;;17.83;9.80;;;;;;;13.38;100.00;101801.44;4898082;29;20044;-81
2023/05/23 03:01:48;;;;;;;17.27;9.67;;;;;;;13.38;100.00;101806.91;4882793;29;20116;-82
2023/05/23 03:04:13;;;;;;;17.30;9.10;;;;;;;13.37;100.00;101802.50;4867511;29;20127;-82
2023/05/23 03:06:40;;;;;;;17.10;8.77;;;;;;;13.37;100.00;101807.13;4882628;29;20292;-81
2023/05/23 03:09:07;;;;;;;14.43;7.88;;;;;;;13.38;100.00;101804.19;4882961;29;20052;-81
2023/05/23 03:11:33;;;;;;;19.42;8.00;;;;;;;13.40;100.00;101809.41;4898207;29;20025;-82
2023/05/23 03:13:58;;;;;;;10.90;7.50;;;;;;;13.39;100.00;101815.91;4898687;29;20037;-82
2023/05/23 03:16:23;;;;;;;11.50;7.23;;;;;;;13.39;100.00;101810.44;4900190;29;20116;-82
2023/05/23 03:18:49;;;;;;;12.97;6.07;;;;;;;13.40;100.00;101809.41;4899438;29;20037;-82
2023/05/23 03:21:14;;;;;;;10.90;6.47;;;;;;;13.39;100.00;101811.31;4898039;29;20049;-82
2023/05/23 03:23:40;;;;;;;11.90;7.27;;;;;;;13.37;100.00;101813.38;4882520;29;20033;-82
2023/05/23 03:26:05;;;;;;;12.77;5.93;;;;;;;13.39;100.00;101810.44;4898017;29;20079;-82
2023/05/23 03:28:31;;;;;;;11.03;6.50;;;;;;;13.36;100.00;101809.00;4861353;29;1129238;-81
2023/05/23 03:30:57;;;;;;;11.48;6.60;;;;;;;13.39;100.00;101811.31;4883727;29;20478;-81
2023/05/23 03:33:22;;;;;;;8.40;6.55;;;;;;;13.38;100.00;101819.69;4883413;29;20062;-82
2023/05/23 03:35:48;;;;;;;14.43;6.97;;;;;;;13.39;100.00;101824.09;4900040;29;20417;-81
2023/05/23 03:38:13;;;;;;;9.03;6.37;;;;;;;13.39;100.00;101822.22;4883075;29;20071;-82
2023/05/23 03:40:39;;;;;;;10.43;6.40;;;;;;;13.38;100.00;101823.25;4883244;29;20043;-81
2023/05/23 03:43:05;;;;;;;9.27;6.18;;;;;;;13.38;100.00;101822.44;4883091;29;20544;-82
2023/05/23 03:45:31;;;;;;;10.30;6.75;;;;;;;13.38;100.00;101823.25;4882888;29;20366;-82
2023/05/23 03:48:00;;;;;;;12.80;6.80;;;;;;;13.35;100.00;101820.13;4882877;29;20497;-82
2023/05/23 03:50:26;;;;;;;11.80;6.88;;;;;;;13.38;100.00;101822.44;4899757;29;20095;-82
2023/05/23 03:52:52;;;;;;;13.25;7.50;;;;;;;13.38;100.00;101822.44;4882863;29;20048;-82
2023/05/23 03:55:21;;;;;;;13.95;8.25;;;;;;;13.36;100.00;101827.22;4899617;29;20043;-82
2023/05/23 03:57:47;;;;;;;11.40;7.35;;;;;;;13.39;100.00;101826.81;4899445;29;20080;-82
2023/05/23 04:00:14;;;;;;;13.93;7.33;;;;;;;13.38;100.00;101820.53;4899830;29;20476;-81
2023/05/23 04:02:39;;;;;;;12.63;8.15;;;;;;;13.41;100.00;101825.56;4882689;29;20033;-82
2023/05/23 04:05:05;;;;;;;16.63;7.87;;;;;;;13.41;100.00;101824.72;4882657;29;20127;-82
2023/05/23 04:07:33;;;;;;;14.40;8.35;;;;;;;13.44;100.00;101827.03;4899253;29;20474;-82
2023/05/23 04:10:02;;;;;;;16.35;7.55;;;;;;;13.42;100.00;101835.41;4867764;29;20028;-82
2023/05/23 04:12:29;;;;;;;12.85;7.20;;;;;;;13.42;100.00;101832.69;4867604;29;20393;-82
2023/05/23 04:14:55;;;;;;;14.10;7.60;;;;;;;13.43;100.00;101833.53;4882490;29;20032;-82
2023/05/23 04:17:22;;;;;;;12.37;6.67;;;;;;;13.45;100.00;101840.44;4867014;29;20037;-82
2023/05/23 04:19:51;;;;;;;15.00;6.65;;;;;;;13.47;100.00;101848.41;4882351;29;20477;-82
2023/05/23 04:22:16;;;;;;;14.82;8.13;;;;;;;13.45;100.00;101845.03;4851519;29;20069;-82
2023/05/23 04:24:42;;;;;;;13.67;6.73;;;;;;;13.43;100.00;101837.06;4882600;29;20076;-82
2023/05/23 04:27:07;;;;;;;15.17;8.13;;;;;;;13.45;100.00;101851.34;4882052;29;20058;-82
2023/05/23 04:29:34;;;;;;;14.57;8.10;;;;;;;13.48;100.00;101859.13;4867095;29;20049;-82
2023/05/23 04:32:01;;;;;;;20.05;8.57;;;;;;;13.46;100.00;101849.47;4882372;29;20020;-82
2023/05/23 04:34:26;;;;;;;15.55;8.20;;;;;;;13.44;100.00;101846.13;4882175;29;20028;-82
2023/05/23 04:36:53;;;;;;;15.25;8.48;;;;;;;13.44;100.00;101854.28;4866660;29;20074;-85
2023/05/23 04:39:19;;;;;;;18.20;8.90;;;;;;;13.43;100.00;101853.44;4851687;29;20037;-82
2023/05/23 04:41:44;;;;;;;18.63;9.05;;;;;;;13.48;100.00;101861.00;4882710;29;20374;-82
2023/05/23 04:44:10;;;;;;;17.33;9.70;;;;;;;13.48;100.00;101861.00;4866680;29;20100;-82
2023/05/23 04:46:35;;;;;;;21.17;9.27;;;;;;;13.48;100.00;101861.84;4881777;29;20064;-82
2023/05/23 04:49:02;;;;;;;23.73;8.60;;;;;;;13.53;100.00;101863.09;4881886;29;20044;-82
2023/05/23 04:51:28;;;;;;;24.27;10.13;;;;;;;13.53;100.00;101858.47;4898427;29;20084;-82
2023/05/23 04:53:54;;;;;;;31.87;10.17;;;;;;;13.50;100.00;101876.09;4867219;29;20414;-82
2023/05/23 04:56:19;;;;;;;24.27;9.88;;;;;;;13.44;100.00;101868.75;4866144;29;20083;-81
2023/05/23 04:58:46;;;;;;;20.87;9.03;;;;;;;13.42;100.00;101880.91;4898490;29;20075;-82
2023/05/23 05:01:12;;;;;;;25.05;9.90;;;;;;;13.40;100.00;101869.38;4898398;29;20055;-82
2023/05/23 05:03:38;;;;;;;29.52;10.68;;;;;;;13.44;100.00;101870.66;4881526;29;20044;-82
2023/05/23 05:06:04;;;;;;;25.20;10.13;;;;;;;13.43;100.00;101875.25;4865904;29;20047;-82
2023/05/23 05:08:30;;;;;;;27.20;10.60;;;;;;;13.43;100.00;101882.59;4866201;29;20067;-82
2023/05/23 05:10:55;;;;;;;29.43;10.37;;;;;;;13.43;100.00;101882.59;4898805;29;20060;-82
2023/05/23 05:13:21;;;;;;;28.30;10.40;;;;;;;13.43;100.00;101880.69;4866364;29;20029;-82
2023/05/23 05:15:46;;;;;;;25.70;9.93;;;;;;;13.44;100.00;101890.56;4881528;29;20372;-83
2023/05/23 05:18:12;;;;;;;22.63;9.50;;;;;;;13.51;100.00;101888.69;4866425;29;20047;-86
2023/05/23 05:20:40;;;;;;;24.13;9.50;;;;;;;13.59;100.00;101893.06;4881436;29;20036;-85
2023/05/23 05:23:07;;;;;;;27.08;10.55;;;;;;;13.60;100.00;101900.22;4882381;29;20033;-85
2023/05/23 05:25:34;;;;;;;34.92;10.52;;;;;;;13.51;100.00;101898.75;4866291;29;20576;-86
2023/05/23 05:28:04;;;;;;;22.83;10.20;;;;;;;13.51;100.00;101906.94;4880697;29;20144;-88
2023/05/23 05:30:34;;;;;;;35.15;10.35;;;;;;;13.66;100.00;101904.81;4898563;29;20543;-85
2023/05/23 05:33:03;;;;;;;32.97;9.83;;;;;;;13.55;100.00;101910.06;4881284;29;20056;-85
2023/05/23 05:35:30;;;;;;;28.75;9.57;;;;;;;13.51;100.00;101915.13;4881276;29;20041;-86
2023/05/23 05:37:56;;;;;;;31.17;9.75;;;;;;;13.55;100.00;101912.78;4898663;29;20061;-87
2023/05/23 05:40:21;;;;;;;36.27;10.40;;;;;;;13.53;100.00;101914.91;4881709;29;20238;-85
2023/05/23 05:42:46;;;;;;;26.30;9.87;;;;;;;13.51;100.00;101917.84;4881344;29;20033;-83
2023/05/23 05:45:12;;;;;;;30.33;9.60;;;;;;;13.45;100.00;101924.09;4850106;29;20531;-83
2023/05/23 05:47:37;;;;;;;24.90;7.97;;;;;;;13.35;100.00;101921.81;4865845;29;20040;-83
2023/05/23 05:50:09;;;;;;;23.17;8.30;;;;;;;13.32;100.00;101931.19;4881691;29;20044;-83
2023/05/23 05:52:37;;;;;;;30.05;8.80;;;;;;;13.29;100.00;101925.34;4866793;29;20163;-83
2023/05/23 05:55:07;;;;;;;25.20;8.55;;;;;;;13.25;100.00;101926.78;4882497;29;20040;-84
2023/05/23 05:57:32;;;;;;;22.90;8.13;;;;;;;13.20;100.00;101938.31;4897832;29;20040;-83
2023/05/23 05:59:58;;;;;;;26.60;8.80;;;;;;;13.23;100.00;101935.16;4881030;29;20393;-82
2023/05/23 06:02:23;;;;;;;26.80;9.17;;;;;;;13.20;100.00;101941.03;4881085;29;20044;-83
2023/05/23 06:04:51;;;;;;;26.57;7.43;;;;;;;13.24;100.00;101939.59;4865534;29;20029;-83
2023/05/23 06:07:24;;;;;;;21.43;7.07;;;;;;;13.23;100.00;101942.50;4898017;29;20309;-85
2023/05/23 06:09:49;;;;;;;22.88;7.50;;;;;;;13.20;100.00;101946.50;4851698;29;20036;-84
2023/05/23 06:12:15;;;;;;;18.50;6.90;;;;;;;13.16;100.00;101948.75;4897860;29;20037;-84
2023/05/23 06:14:40;;;;;;;20.55;6.57;;;;;;;13.21;100.00;101948.16;4865012;29;20044;-84
2023/05/23 06:17:05;;;;;;;17.13;7.40;;;;;;;13.29;100.00;101956.13;4883701;29;20440;-84
2023/05/23 06:19:34;;;;;;;15.13;5.43;;;;;;;13.31;100.00;101958.66;4900509;29;20565;-85
2023/05/23 06:21:59;;;;;;;13.82;4.78;;;;;;;13.38;100.00;101958.72;4884263;29;20119;-84
2023/05/23 06:24:25;;;;;;;15.83;5.67;;;;;;;13.46;100.00;101966.69;4883413;29;20370;-85
2023/05/23 06:26:52;;;;;;;12.87;4.60;;;;;;;13.56;99.42;101969.00;4869235;29;20044;-85
2023/05/23 06:29:18;;;;;;;16.10;5.05;;;;;;;13.58;99.05;101972.34;4867930;29;20120;-84
2023/05/23 06:31:43;;;;;;;14.23;4.60;;;;;;;13.57;98.65;101962.50;4868781;29;20482;-85
2023/05/23 06:34:09;;;;;;;9.87;4.50;;;;;;;13.47;97.38;101968.38;4883854;29;20409;-82
2023/05/23 06:36:34;;;;;;;16.38;4.93;;;;;;;13.36;97.23;101968.97;4884145;29;20492;-82
2023/05/23 06:39:00;;;;;;;8.83;4.23;;;;;;;13.25;97.87;101965.78;4883756;29;20039;-83
2023/05/23 06:41:27;;;;;;;9.83;4.80;;;;;;;13.26;98.09;101967.47;4883952;29;20091;-83
2023/05/23 06:43:53;;;;;;;13.52;4.78;;;;;;;13.23;97.91;101975.19;4883725;29;20036;-82
2023/05/23 06:46:18;;;;;;;12.30;4.70;;;;;;;13.23;98.33;101980.63;4900648;29;20087;-82
2023/05/23 06:48:47;;;;;;;10.70;4.47;;;;;;;13.17;97.41;101982.31;4853429;29;20373;-82
2023/05/23 06:51:12;;;;;;;18.70;4.45;;;;;;;13.12;97.68;101993.84;4867820;29;20039;-83
2023/05/23 06:53:37;;;;;;;16.00;5.13;;;;;;;13.05;98.63;102000.28;4883257;29;20037;-82
2023/05/23 06:56:03;;;;;;;13.60;4.78;;;;;;;12.98;98.43;102001.09;4867518;29;20074;-82
2023/05/23 06:58:29;;;;;;;14.93;4.87;;;;;;;12.96;97.63;101997.75;4882765;29;20036;-83
2023/05/23 07:00:54;;;;;;;12.63;4.83;;;;;;;12.85;98.18;102020.13;4867822;29;20060;-82
2023/05/23 07:03:19;;;;;;;13.80;5.25;;;;;;;12.86;97.77;102010.06;4852708;29;20036;-83
2023/05/23 07:05:45;;;;;;;10.90;4.30;;;;;;;12.91;97.23;102007.56;4883465;29;20418;-83
2023/05/23 07:08:13;;;;;;;13.97;4.90;;;;;;;12.95;96.79;102006.13;4852765;29;20029;-83
2023/05/23 07:10:40;;;;;;;13.57;4.43;;;;;;;13.02;97.00;102011.59;4883467;29;20115;-83
2023/05/23 07:13:05;;;;;;;15.98;4.72;;;;;;;13.06;97.00;102018.31;4883421;29;20043;-83
2023/05/23 07:15:31;;;;;;;8.63;3.80;;;;;;;13.10;96.28;102025.88;4883632;29;20037;-83
2023/05/23 07:17:56;;;;;;;14.17;4.80;;;;;;;13.14;95.74;102018.16;4868310;29;20033;-83
2023/05/23 07:20:21;;;;;;;11.63;5.10;;;;;;;13.26;94.82;102019.25;4852568;29;20036;-83
2023/05/23 07:22:47;;;;;;;12.23;4.87;;;;;;;13.32;91.57;102015.69;4900054;29;20048;-83
2023/05/23 07:25:12;;;;;;;13.80;4.40;;;;;;;13.50;89.24;102027.94;4867801;29;20123;-83
2023/05/23 07:27:38;;;;;;;12.03;4.23;;;;;;;13.67;86.18;102028.38;4899053;29;20028;-83
2023/05/23 07:30:04;;;;;;;10.70;4.07;;;;;;;13.79;84.17;102025.88;4851651;29;20076;-83
2023/05/23 07:32:29;;;;;;;14.40;4.00;;;;;;;13.94;82.12;102018.34;4883822;29;20037;-82
2023/05/23 07:34:55;;;;;;;12.63;3.90;;;;;;;14.03;80.64;102027.16;4867207;29;20051;-83
2023/05/23 07:37:20;;;;;;;14.07;4.30;;;;;;;14.20;79.52;102030.28;4867206;29;20116;-83
2023/05/23 07:39:46;;;;;;;15.67;5.23;;;;;;;14.34;78.67;102028.41;4899374;29;20288;-83
2023/05/23 07:42:11;;;;;;;13.83;4.50;;;;;;;14.51;76.47;102043.31;4867470;29;20073;-83
2023/05/23 07:44:37;;;;;;;8.97;3.87;;;;;;;14.55;75.88;102027.31;4883016;29;20029;-83
2023/05/23 07:47:05;;;;;;;20.58;4.70;;;;;;;14.67;75.25;102022.91;4882997;29;20040;-83
2023/05/23 07:49:31;;;;;;;14.87;4.60;;;;;;;14.85;74.33;102035.03;4867988;29;20051;-83
2023/05/23 07:51:57;;;;;;;14.25;4.30;;;;;;;15.02;75.04;102036.25;4882732;29;20029;-83
2023/05/23 07:54:22;;;;;;;15.77;4.97;;;;;;;15.10;73.48;102037.88;4866925;29;20040;-83
2023/05/23 07:56:47;;;;;;;10.15;3.72;;;;;;;15.03;73.52;102051.59;4867320;29;20108;-83
2023/05/23 07:59:13;;;;;;;15.93;4.77;;;;;;;14.96;74.24;102050.78;4883479;29;20040;-83
2023/05/23 08:01:39;;;;;;;13.33;5.00;;;;;;;14.95;75.42;102048.25;4882498;29;20028;-83
2023/05/23 08:04:05;;;;;;;18.08;4.43;;;;;;;15.03;75.55;102046.13;4882661;29;20120;-83
2023/05/23 08:06:31;;;;;;;12.30;4.70;;;;;;;15.00;73.71;102056.63;4882677;29;20033;-83
2023/05/23 08:08:56;;;;;;;13.75;5.10;;;;;;;14.98;74.91;102056.03;4883238;29;20029;-83
2023/05/23 08:11:22;;;;;;;13.43;5.30;;;;;;;15.02;73.53;102060.84;4867139;29;20048;-83
2023/05/23 08:13:47;;;;;;;10.52;4.45;;;;;;;15.12;74.07;102067.75;4851654;29;20041;-83
2023/05/23 08:16:12;;;;;;;13.43;4.60;;;;;;;15.32;72.33;102071.22;4882197;29;20039;-83
2023/05/23 08:18:38;;;;;;;16.00;4.97;;;;;;;15.51;71.38;102068.63;4882739;29;20068;-83
2023/05/23 08:21:04;;;;;;;16.60;4.97;;;;;;;15.55;71.19;102056.19;4866946;29;20037;-83
2023/05/23 08:23:29;;;;;;;56.87;9.07;;;;;;;15.79;71.47;102062.81;4882394;29;20176;-83
2023/05/23 08:25:56;;;;;;;84.83;10.00;;;;;;;16.06;69.63;102059.88;4866634;29;20037;-84
2023/05/23 08:28:21;;;;;;;28.48;6.03;;;;;;;16.07;68.41;102061.56;4898816;29;20048;-83
2023/05/23 08:30:47;;;;;;;24.87;5.73;;;;;;;16.04;69.14;102064.75;4882129;29;20478;-83
2023/05/23 08:33:12;;;;;;;21.40;5.30;;;;;;;16.01;70.37;102067.94;4898819;29;20482;-83
2023/05/23 08:35:37;;;;;;;16.23;4.63;;;;;;;15.87;68.71;102064.44;4881769;29;20455;-83
2023/05/23 08:38:06;;;;;;;12.07;4.70;;;;;;;15.65;70.16;102070.25;4882042;29;20040;-83
2023/05/23 08:40:34;;;;;;;12.80;4.18;;;;;;;15.66;71.27;102063.69;4881899;29;20083;-84
2023/05/23 08:43:00;;;;;;;13.37;4.37;;;;;;;15.69;70.73;102060.50;4882280;29;20087;-82
2023/05/23 08:45:28;;;;;;;11.13;4.72;;;;;;;15.79;71.65;102068.28;4898534;29;20032;-82
2023/05/23 08:47:54;;;;;;;17.63;4.80;;;;;;;15.99;71.47;102064.56;4882254;29;20039;-82
2023/05/23 08:50:20;;;;;;;14.85;4.63;;;;;;;16.20;71.29;102064.19;4898808;29;20033;-82
2023/05/23 08:52:56;;;;;;;13.53;4.63;;;;;;;16.26;70.35;102073.41;4898620;29;20029;-83
2023/05/23 08:55:25;;;;;;;15.37;4.30;;;;;;;16.17;71.34;102074.75;4898536;29;20298;-82
2023/05/23 08:57:51;;;;;;;12.27;3.70;;;;;;;16.16;70.87;102082.13;4881833;29;20128;-82
2023/05/23 09:00:17;;;;;;;11.15;3.80;;;;;;;16.35;70.47;102084.94;4866993;29;20116;-82
2023/05/23 09:02:43;;;;;;;11.85;3.42;;;;;;;16.57;70.63;102080.69;4881770;29;20047;-82
2023/05/23 09:05:10;;;;;;;11.10;4.00;;;;;;;16.62;69.61;102080.03;4881667;29;20056;-82
2023/05/23 09:07:36;;;;;;;12.00;3.92;;;;;;;16.57;69.54;102090.84;4898413;29;20103;-83
2023/05/23 09:10:04;;;;;;;9.30;3.63;;;;;;;16.52;68.49;102087.91;4881695;29;20084;-83
2023/05/23 09:12:29;;;;;;;13.50;3.85;;;;;;;16.52;69.80;102094.25;4881021;29;20077;-82
2023/05/23 09:14:55;;;;;;;10.30;3.80;;;;;;;16.82;69.25;102091.63;4882009;29;20037;-83
2023/05/23 09:17:21;;;;;;;12.00;4.17;;;;;;;17.24;68.50;102085.47;4898409;29;20029;-82
2023/05/23 09:19:47;;;;;;;13.15;3.55;;;;;;;17.36;65.92;102097.38;4898394;29;20115;-83
2023/05/23 09:22:12;;;;;;;13.73;3.55;;;;;;;17.22;66.38;102090.38;4881519;29;20064;-82
2023/05/23 09:24:38;;;;;;;11.10;3.10;;;;;;;17.26;65.95;102093.47;4898590;29;20434;-82
2023/05/23 09:27:07;;;;;;;10.93;2.77;;;;;;;17.32;65.73;102104.38;4866050;29;20036;-82
2023/05/23 09:29:38;;;;;;;11.80;3.25;;;;;;;17.16;63.61;102113.22;4881145;29;20052;-82
2023/05/23 09:32:11;;;;;;;11.45;2.38;;;;;;;17.10;63.02;102101.25;4851345;29;20389;-82
2023/05/23 09:34:40;;;;;;;10.48;2.60;;;;;;;17.14;60.81;102102.50;4866078;29;20437;-83
2023/05/23 09:37:07;;;;;;;13.63;2.40;;;;;;;17.36;61.04;102104.75;4881889;29;20530;-82
2023/05/23 09:39:36;;;;;;;10.27;2.67;;;;;;;17.38;60.18;102099.88;4881839;29;20461;-82
2023/05/23 09:42:01;;;;;;;10.85;2.42;;;;;;;17.66;59.95;102104.78;4898240;29;20040;-82
2023/05/23 09:44:27;;;;;;;18.77;2.73;;;;;;;17.50;57.48;102108.16;4881515;29;20040;-83
2023/05/23 09:46:55;;;;;;;16.15;2.35;;;;;;;17.30;59.30;102106.53;4897792;29;20072;-83
2023/05/23 09:49:21;;;;;;;12.30;2.45;;;;;;;17.46;59.19;102104.19;4881551;29;20069;-83
2023/05/23 09:51:57;;;;;;;14.60;2.57;;;;;;;17.76;58.69;102096.00;4867769;29;20417;-83
2023/05/23 09:54:22;;;;;;;12.48;2.42;;;;;;;18.15;56.79;102101.97;4884527;29;20037;-82
2023/05/23 09:56:51;;;;;;;13.13;2.33;;;;;;;18.51;56.58;102097.38;4869306;29;20048;-83
2023/05/23 09:59:23;;;;;;;11.13;2.10;;;;;;;18.86;54.96;102101.19;4884825;29;20770;-83
2023/05/23 10:01:52;;;;;;;8.65;2.05;;;;;;;18.74;52.64;102098.44;4885000;29;20462;-83
2023/05/23 10:04:22;;;;;;;12.68;2.20;;;;;;;18.35;53.55;102100.78;4869476;29;20080;-82
2023/05/23 10:06:58;;;;;;;13.38;2.25;;;;;;;17.97;54.81;102102.88;4884872;29;20427;-83
2023/05/23 10:09:30;;;;;;;11.40;2.60;;;;;;;18.00;54.76;102098.84;4901431;29;20048;-82
2023/05/23 10:12:07;;;;;;;15.37;2.53;;;;;;;18.29;55.26;102097.09;4884548;29;20092;-83
2023/05/23 10:14:37;;;;;;;11.85;2.70;;;;;;;18.64;54.15;102107.25;4885039;29;20066;-83
2023/05/23 10:17:10;;;;;;;13.48;2.30;;;;;;;18.83;53.06;102104.41;4901753;29;20033;-83
2023/05/23 10:19:45;;;;;;;10.55;2.22;;;;;;;19.27;52.25;102091.06;4901447;29;20043;-82
2023/05/23 10:22:12;;;;;;;11.18;2.70;;;;;;;19.57;50.69;102103.78;4884453;29;20036;-83
2023/05/23 10:24:39;;;;;;;10.77;2.90;;;;;;;19.61;49.63;102096.69;4900983;29;20119;-83
2023/05/23 10:27:05;;;;;;;12.13;2.30;;;;;;;19.80;49.79;102105.63;4884274;29;20033;-83
2023/05/23 10:29:35;;;;;;;12.38;2.60;;;;;;;19.99;49.29;102106.25;4884140;29;20053;-83
2023/05/23 10:32:04;;;;;;;12.63;2.75;;;;;;;19.99;48.31;102106.25;4869428;29;20041;-83
2023/05/23 10:34:47;;;;;;;7.78;2.22;;;;;;;20.08;48.06;102104.75;4901025;29;20041;-83
2023/05/23 10:37:26;;;;;;;16.67;2.63;;;;;;;20.17;48.43;102107.94;4901324;29;20032;-83
2023/05/23 10:39:51;;;;;;;13.48;2.63;;;;;;;19.90;47.01;102100.31;4901258;29;20024;-83
2023/05/23 10:42:33;;;;;;;8.67;2.23;;;;;;;20.00;48.57;102104.31;4900943;29;20126;-83
2023/05/23 10:45:23;;;;;;;12.93;2.40;;;;;;;20.12;48.20;102107.81;4869295;29;20373;-84
2023/05/23 10:47:51;;;;;;;9.90;2.58;;;;;;;19.83;46.82;102104.28;4900639;29;20097;-84
2023/05/23 10:50:36;;;;;;;15.93;2.92;;;;;;;19.91;48.67;102101.13;4900952;29;20028;-83
2023/05/23 10:53:03;;;;;;;8.40;2.50;;;;;;;20.05;45.30;102099.72;4852645;29;20074;-83
2023/05/23 10:55:33;;;;;;;14.23;3.10;;;;;;;20.19;45.23;102100.22;4883423;29;20025;-83
2023/05/23 10:58:31;;;;;;;12.63;2.30;;;;;;;20.44;46.20;102098.97;4900304;29;20033;-82
2023/05/23 11:01:01;;;;;;;13.35;2.40;;;;;;;20.40;43.82;102092.31;4875944;29;20043;-83
2023/05/23 11:03:32;;;;;;;10.52;2.80;;;;;;;20.54;44.23;102109.34;4883471;29;20111;-82
2023/05/23 11:05:58;;;;;;;12.03;2.93;;;;;;;20.88;43.18;102098.28;4883899;29;20393;-83
2023/05/23 11:08:24;;;;;;;9.32;2.80;;;;;;;21.49;41.65;102085.22;4883689;29;20032;-82
2023/05/23 11:10:52;;;;;;;11.25;2.47;;;;;;;21.79;42.01;102086.69;4883099;29;20032;-82
2023/05/23 11:13:20;;;;;;;12.20;3.05;;;;;;;22.04;39.70;102099.91;4883046;29;20068;-83